Time;durP1;ratioP1;P1;durP2;ratioP2;P2;SDS_P1;SDS_P2;PMS_P1;PMS_P2;Temp;Humidity;BMP_temperature;BMP_pressure;BME280_temperature;BME280_humidity;BME280_pressure;Samples;Min_cycle;Max_cycle;Signal;HPM_P1;HPM_P2
2023/03/14 00:00:13;;;;;;;16.52;4.45;;;11.40;99.90;;;;;;5086923;28;20032;-80
2023/03/14 00:02:39;;;;;;;20.70;4.20;;;10.70;99.90;;;;;;5065732;28;20107;-80
2023/03/14 00:05:08;;;;;;;25.77;4.53;;;11.40;99.90;;;;;;5075902;28;20056;-80
2023/03/14 00:07:36;;;;;;;24.58;4.60;;;10.70;99.90;;;;;;5076743;28;20044;-81
2023/03/14 00:10:09;;;;;;;24.30;5.60;;;11.50;99.90;;;;;;5094481;28;20044;-79
2023/03/14 00:12:35;;;;;;;20.30;4.68;;;10.80;99.90;;;;;;5043016;28;20032;-80
2023/03/14 00:15:03;;;;;;;25.27;5.00;;;11.70;99.90;;;;;;5073312;28;20066;-79
2023/03/14 00:17:30;;;;;;;20.40;4.55;;;11.60;99.90;;;;;;5072154;28;20048;-80
2023/03/14 00:19:55;;;;;;;24.77;5.45;;;11.20;99.90;;;;;;5093708;28;20024;-80
2023/03/14 00:22:21;;;;;;;20.95;4.75;;;11.40;99.90;;;;;;5077915;28;20046;-80
2023/03/14 00:24:47;;;;;;;19.40;5.00;;;10.90;99.90;;;;;;5097264;28;20499;-79
2023/03/14 00:27:13;;;;;;;24.08;4.55;;;10.80;99.90;;;;;;5073009;28;20044;-79
2023/03/14 00:29:38;;;;;;;26.92;5.13;;;11.00;99.90;;;;;;5072120;28;20074;-80
2023/03/14 00:32:04;;;;;;;18.17;4.40;;;11.30;99.90;;;;;;5086702;28;20032;-80
2023/03/14 00:34:31;;;;;;;19.45;4.55;;;10.90;99.90;;;;;;5074063;28;20047;-80
2023/03/14 00:36:57;;;;;;;17.80;4.40;;;11.60;99.90;;;;;;5070559;28;20032;-80
2023/03/14 00:39:23;;;;;;;22.55;5.20;;;11.40;99.90;;;;;;5073152;28;20154;-80
2023/03/14 00:41:48;;;;;;;18.50;5.13;;;11.00;99.90;;;;;;5093209;28;20067;-80
2023/03/14 00:44:14;;;;;;;23.10;5.15;;;11.70;99.90;;;;;;5076580;28;20036;-80
2023/03/14 00:46:39;;;;;;;19.80;5.05;;;11.00;99.90;;;;;;5085279;28;20033;-79
2023/03/14 00:49:05;;;;;;;18.25;5.18;;;11.00;99.90;;;;;;5083127;28;20082;-79
2023/03/14 00:51:31;;;;;;;15.63;4.63;;;11.60;99.90;;;;;;5074332;28;20036;-79
2023/03/14 00:53:56;;;;;;;18.88;4.95;;;11.10;99.90;;;;;;5080687;28;20464;-79
2023/03/14 00:56:22;;;;;;;18.27;5.15;;;10.80;99.90;;;;;;5058311;28;20040;-79
2023/03/14 00:58:47;;;;;;;15.40;4.65;;;10.70;99.90;;;;;;5071069;28;20043;-80
2023/03/14 01:01:16;;;;;;;16.90;4.85;;;11.60;99.90;;;;;;5086828;28;20086;-80
2023/03/14 01:03:42;;;;;;;18.10;4.75;;;11.40;99.90;;;;;;5082566;28;20032;-79
2023/03/14 01:06:27;;;;;;;16.77;4.18;;;10.80;99.90;;;;;;5091878;28;20028;-79
2023/03/14 01:08:54;;;;;;;14.50;4.50;;;11.70;99.90;;;;;;5049348;28;20068;-79
2023/03/14 01:11:23;;;;;;;17.27;4.22;;;10.80;99.90;;;;;;5061437;28;20448;-80
2023/03/14 01:13:50;;;;;;;17.17;4.57;;;11.00;99.90;;;;;;5059038;28;20500;-79
2023/03/14 01:16:16;;;;;;;18.20;4.32;;;10.90;99.90;;;;;;5074748;28;20430;-80
2023/03/14 01:18:44;;;;;;;16.85;4.30;;;11.90;99.90;;;;;;5068708;28;20442;-80
2023/03/14 01:21:23;;;;;;;13.77;4.28;;;10.80;99.90;;;;;;5056004;28;20426;-79
2023/03/14 01:23:49;;;;;;;17.60;4.35;;;10.90;99.90;;;;;;5058074;28;20071;-80
2023/03/14 01:26:18;;;;;;;16.75;4.13;;;10.90;99.90;;;;;;5073417;28;20032;-80
2023/03/14 01:28:44;;;;;;;19.50;4.47;;;10.90;99.90;;;;;;5079983;28;20043;-80
2023/03/14 01:31:11;;;;;;;13.95;3.90;;;10.80;99.90;;;;;;5083790;28;20107;-79
2023/03/14 01:33:37;;;;;;;18.63;4.78;;;10.80;99.90;;;;;;5080816;28;20572;-79
2023/03/14 01:36:03;;;;;;;24.17;4.63;;;11.30;99.90;;;;;;5095925;28;20059;-79
2023/03/14 01:38:31;;;;;;;14.65;4.07;;;10.70;99.90;;;;;;5093004;28;20051;-80
2023/03/14 01:40:57;;;;;;;20.17;4.13;;;11.60;99.90;;;;;;5068630;28;20044;-80
2023/03/14 01:43:24;;;;;;;21.13;4.10;;;10.60;99.90;;;;;;5093932;28;20405;-79
2023/03/14 01:46:04;;;;;;;18.10;4.32;;;10.70;99.90;;;;;;5089682;28;20040;-80
2023/03/14 01:49:06;;;;;;;19.13;4.15;;;10.70;99.90;;;;;;5068909;28;20079;-79
2023/03/14 01:51:40;;;;;;;16.67;4.30;;;10.60;99.90;;;;;;5087795;28;20028;-79
2023/03/14 01:54:30;;;;;;;16.38;4.47;;;10.60;99.90;;;;;;5102055;28;20027;-80
2023/03/14 01:57:02;;;;;;;15.95;4.22;;;11.10;99.90;;;;;;5084299;28;20032;-80
2023/03/14 01:59:30;;;;;;;16.35;4.60;;;10.60;99.90;;;;;;5072494;28;20040;-79
2023/03/14 02:01:56;;;;;;;17.40;4.38;;;10.60;99.90;;;;;;5072967;28;20487;-80
2023/03/14 02:04:23;;;;;;;18.13;4.28;;;11.10;99.90;;;;;;5070434;28;20058;-80
2023/03/14 02:07:03;;;;;;;17.98;4.22;;;10.70;99.90;;;;;;5087774;28;20376;-80
2023/03/14 02:09:30;;;;;;;18.60;4.13;;;10.70;99.90;;;;;;5053430;28;20047;-79
2023/03/14 02:11:56;;;;;;;16.83;4.20;;;11.20;99.90;;;;;;5059923;28;20093;-80
2023/03/14 02:14:33;;;;;;;18.98;4.30;;;11.50;99.90;;;;;;5095606;28;20032;-79
2023/03/14 02:17:01;;;;;;;18.45;4.47;;;10.70;99.90;;;;;;5101137;28;20035;-80
2023/03/14 02:19:40;;;;;;;14.40;4.40;;;10.80;99.90;;;;;;5082664;28;20040;-79
2023/03/14 02:22:11;;;;;;;18.17;4.18;;;10.60;99.90;;;;;;5082401;28;20115;-79
2023/03/14 02:24:40;;;;;;;22.50;4.68;;;10.90;99.90;;;;;;5067314;28;20047;-80
2023/03/14 02:27:17;;;;;;;15.80;4.20;;;11.70;99.90;;;;;;5061005;28;20090;-80
2023/03/14 02:29:52;;;;;;;17.40;4.50;;;10.60;99.90;;;;;;5046514;28;20048;-80
2023/03/14 02:32:19;;;;;;;15.63;3.88;;;10.40;99.90;;;;;;5073171;28;20036;-80
2023/03/14 02:34:50;;;;;;;20.33;4.03;;;11.20;99.90;;;;;;5051281;28;20036;-80
2023/03/14 02:37:18;;;;;;;12.57;3.72;;;10.20;99.90;;;;;;5091467;28;20093;-80
2023/03/14 02:39:45;;;;;;;16.38;3.60;;;10.30;99.90;;;;;;5096694;28;20052;-80
2023/03/14 02:42:12;;;;;;;14.13;3.30;;;10.20;99.90;;;;;;5072509;28;20044;-80
2023/03/14 02:44:51;;;;;;;15.25;3.40;;;10.60;99.90;;;;;;5087278;28;20485;-80
2023/03/14 02:47:18;;;;;;;11.05;2.90;;;10.40;99.90;;;;;;5068381;28;20059;-80
2023/03/14 02:49:44;;;;;;;11.85;3.03;;;10.20;99.90;;;;;;5089303;28;20036;-80
2023/03/14 02:52:10;;;;;;;7.68;3.22;;;10.10;99.90;;;;;;5068534;28;20032;-80
2023/03/14 02:54:35;;;;;;;12.98;3.90;;;11.20;99.90;;;;;;5072553;28;20040;-80
2023/03/14 02:57:03;;;;;;;12.32;3.13;;;11.20;99.90;;;;;;5055434;28;20035;-80
2023/03/14 02:59:28;;;;;;;9.02;3.15;;;10.60;99.90;;;;;;5050867;28;20044;-80
2023/03/14 03:01:54;;;;;;;8.10;3.25;;;10.00;99.90;;;;;;5070417;28;20032;-80
2023/03/14 03:04:19;;;;;;;11.23;3.55;;;9.80;99.90;;;;;;5091306;28;20037;-79
2023/03/14 03:06:45;;;;;;;12.05;3.20;;;10.40;99.90;;;;;;5084253;28;20037;-80
2023/03/14 03:09:10;;;;;;;8.20;3.22;;;11.10;99.90;;;;;;5066528;28;20415;-79
2023/03/14 03:11:36;;;;;;;11.25;3.55;;;9.70;99.90;;;;;;5068789;28;20085;-79
2023/03/14 03:14:02;;;;;;;11.50;3.15;;;10.30;99.90;;;;;;5083807;28;20032;-80
2023/03/14 03:16:27;;;;;;;10.75;3.45;;;9.80;99.90;;;;;;5048152;28;20078;-79
2023/03/14 03:18:53;;;;;;;13.88;3.70;;;9.70;99.90;;;;;;5090791;28;20039;-79
2023/03/14 03:21:23;;;;;;;13.18;4.22;;;9.70;99.90;;;;;;5090540;28;20036;-79
2023/03/14 03:23:48;;;;;;;11.45;3.83;;;9.70;99.90;;;;;;5096578;28;20036;-79
2023/03/14 03:26:14;;;;;;;14.27;3.75;;;9.70;99.90;;;;;;5066513;28;20089;-80
2023/03/14 03:28:39;;;;;;;12.15;3.80;;;9.70;99.90;;;;;;5100884;28;20504;-80
2023/03/14 03:31:10;;;;;;;16.23;4.00;;;10.40;99.90;;;;;;5088019;28;20032;-80
2023/03/14 03:33:36;;;;;;;11.75;4.22;;;10.80;99.90;;;;;;5072822;28;20024;-79
2023/03/14 03:36:02;;;;;;;14.60;3.95;;;10.40;99.90;;;;;;5067921;28;20036;-79
2023/03/14 03:38:28;;;;;;;15.23;3.60;;;9.70;99.90;;;;;;5047551;28;20044;-79
2023/03/14 03:40:53;;;;;;;14.10;3.22;;;9.70;99.90;;;;;;5087056;28;20028;-79
2023/03/14 03:43:19;;;;;;;17.23;3.30;;;10.50;99.90;;;;;;5081883;22;20129;-62
2023/03/14 03:45:44;;;;;;;13.50;3.80;;;9.70;99.90;;;;;;5082566;28;20089;-62
2023/03/14 03:48:10;;;;;;;13.15;3.42;;;9.70;99.90;;;;;;5063782;28;20054;-62
2023/03/14 03:50:36;;;;;;;13.23;3.78;;;9.70;99.90;;;;;;5072868;28;20033;-62
2023/03/14 03:53:01;;;;;;;11.52;3.15;;;9.70;99.90;;;;;;5063778;28;20032;-62
2023/03/14 03:55:28;;;;;;;12.77;3.45;;;9.70;99.90;;;;;;5051828;28;20044;-62
2023/03/14 03:57:53;;;;;;;12.13;3.25;;;9.70;99.90;;;;;;5076735;28;20040;-63
2023/03/14 04:00:19;;;;;;;16.02;3.65;;;9.70;99.90;;;;;;5053906;28;20402;-62
2023/03/14 04:02:45;;;;;;;13.82;3.55;;;9.70;99.90;;;;;;5070736;28;20032;-63
2023/03/14 04:05:10;;;;;;;13.82;3.50;;;9.70;99.90;;;;;;5072665;28;20064;-62
2023/03/14 04:07:36;;;;;;;10.82;3.42;;;9.70;99.90;;;;;;5060913;28;20496;-62
2023/03/14 04:10:04;;;;;;;11.52;3.00;;;9.70;99.90;;;;;;5072948;28;20056;-63
2023/03/14 04:12:30;;;;;;;15.05;3.88;;;9.60;99.90;;;;;;5060047;28;20418;-63
2023/03/14 04:14:55;;;;;;;13.48;3.67;;;9.60;99.90;;;;;;5075812;28;20131;-63
2023/03/14 04:17:21;;;;;;;11.85;4.00;;;9.60;99.90;;;;;;5080241;28;20503;-63
2023/03/14 04:19:49;;;;;;;12.63;4.55;;;9.60;99.90;;;;;;5058773;28;20240;-63
2023/03/14 04:22:14;;;;;;;14.55;4.13;;;9.60;99.90;;;;;;5082514;28;20032;-63
2023/03/14 04:24:40;;;;;;;11.10;3.83;;;9.60;99.90;;;;;;5080137;28;20119;-63
2023/03/14 04:27:06;;;;;;;10.50;3.42;;;9.50;99.90;;;;;;5068529;28;20040;-63
2023/03/14 04:29:31;;;;;;;12.07;4.22;;;9.60;99.90;;;;;;5057013;28;20040;-63
2023/03/14 04:31:57;;;;;;;12.02;3.25;;;9.60;99.90;;;;;;5064650;28;20043;-63
2023/03/14 04:34:22;;;;;;;10.88;4.13;;;9.60;99.90;;;;;;5054455;28;20039;-63
2023/03/14 04:36:48;;;;;;;12.38;4.35;;;9.50;99.90;;;;;;5080201;28;20032;-63
2023/03/14 04:39:13;;;;;;;11.32;3.92;;;9.50;99.90;;;;;;5044888;28;20125;-63
2023/03/14 04:41:39;;;;;;;12.25;4.50;;;9.60;99.90;;;;;;5058393;28;20329;-63
2023/03/14 04:44:04;;;;;;;13.55;4.50;;;9.60;99.90;;;;;;5058922;28;20083;-63
2023/03/14 04:46:30;;;;;;;13.55;4.68;;;9.60;99.90;;;;;;5061047;28;20040;-63
2023/03/14 04:48:56;;;;;;;11.50;4.15;;;9.60;99.90;;;;;;5055374;28;20044;-63
2023/03/14 04:51:23;;;;;;;10.50;3.92;;;9.60;99.90;;;;;;5061028;28;20215;-63
2023/03/14 04:53:48;;;;;;;12.43;3.83;;;9.60;99.90;;;;;;5076495;28;20041;-62
2023/03/14 04:56:14;;;;;;;15.57;4.50;;;9.60;99.90;;;;;;5054996;28;20114;-63
2023/03/14 04:58:39;;;;;;;15.02;4.35;;;9.60;99.90;;;;;;5052092;28;20040;-63
2023/03/14 05:01:06;;;;;;;10.93;3.50;;;9.60;99.90;;;;;;5051699;28;20429;-63
2023/03/14 05:03:31;;;;;;;12.65;4.80;;;9.60;99.90;;;;;;5055925;28;20072;-63
2023/03/14 05:05:58;;;;;;;11.25;4.18;;;9.60;99.90;;;;;;5073979;28;20514;-63
2023/03/14 05:08:24;;;;;;;11.38;3.75;;;9.70;99.90;;;;;;5057831;28;20435;-63
2023/03/14 05:10:54;;;;;;;13.55;4.35;;;9.60;99.90;;;;;;5086765;28;20040;-63
2023/03/14 05:13:19;;;;;;;14.05;3.90;;;9.60;99.90;;;;;;5065089;28;20047;-63
2023/03/14 05:15:45;;;;;;;16.42;4.38;;;9.60;99.90;;;;;;5076142;28;20098;-63
2023/03/14 05:18:10;;;;;;;12.40;4.03;;;9.60;99.90;;;;;;5060506;28;20139;-63
2023/03/14 05:20:36;;;;;;;15.32;4.80;;;9.60;99.90;;;;;;5061506;28;20548;-63
2023/03/14 05:23:01;;;;;;;11.27;4.30;;;9.70;99.90;;;;;;5075591;28;20090;-63
2023/03/14 05:25:27;;;;;;;10.88;3.65;;;9.60;99.90;;;;;;5074018;28;20039;-63
2023/03/14 05:27:56;;;;;;;13.00;4.50;;;9.60;99.90;;;;;;5071294;28;20049;-63
2023/03/14 05:30:21;;;;;;;10.75;3.65;;;9.60;99.90;;;;;;5051829;28;20478;-63
2023/03/14 05:32:48;;;;;;;11.90;3.80;;;9.60;99.90;;;;;;5056189;28;20089;-63
2023/03/14 05:35:14;;;;;;;13.40;3.80;;;9.60;99.90;;;;;;5070547;28;20039;-63
2023/03/14 05:37:39;;;;;;;11.20;3.42;;;9.50;99.90;;;;;;5047675;28;20040;-64
2023/03/14 05:40:06;;;;;;;16.33;3.90;;;9.60;99.90;;;;;;5062837;28;20044;-63
2023/03/14 05:42:32;;;;;;;10.88;3.63;;;9.50;99.90;;;;;;5055551;28;20048;-64
2023/03/14 05:44:57;;;;;;;16.88;4.22;;;9.50;99.90;;;;;;5052957;28;20124;-64
2023/03/14 05:47:24;;;;;;;13.82;3.47;;;9.40;99.90;;;;;;5051953;28;20123;-64
2023/03/14 05:49:50;;;;;;;13.43;3.80;;;9.40;99.90;;;;;;5070520;28;20033;-64
2023/03/14 05:52:15;;;;;;;11.90;3.78;;;9.40;99.90;;;;;;5073934;28;20085;-64
2023/03/14 05:54:41;;;;;;;11.63;3.53;;;9.30;99.90;;;;;;5052329;28;20079;-64
2023/03/14 05:57:06;;;;;;;10.07;4.13;;;9.30;99.90;;;;;;5058943;28;20037;-64
2023/03/14 05:59:32;;;;;;;14.38;3.60;;;9.30;99.90;;;;;;5041305;28;20036;-64
2023/03/14 06:01:57;;;;;;;11.77;3.80;;;9.30;99.90;;;;;;5056266;28;20124;-65
2023/03/14 06:04:24;;;;;;;11.75;3.70;;;9.30;99.90;;;;;;5054765;28;20040;-65
2023/03/14 06:06:49;;;;;;;13.77;3.83;;;9.30;99.90;;;;;;5055187;28;20436;-63
2023/03/14 06:09:15;;;;;;;14.25;3.78;;;9.30;99.90;;;;;;5079659;28;20141;-64
2023/03/14 06:11:41;;;;;;;8.80;3.45;;;9.30;99.90;;;;;;5064996;28;20037;-64
2023/03/14 06:14:07;;;;;;;13.85;4.18;;;9.30;99.90;;;;;;5072924;28;20036;-64
2023/03/14 06:16:32;;;;;;;14.38;4.22;;;9.30;99.90;;;;;;5057090;28;20116;-64
2023/03/14 06:18:58;;;;;;;12.18;4.25;;;9.30;99.90;;;;;;5056878;28;20429;-63
2023/03/14 06:21:23;;;;;;;16.25;4.72;;;9.30;99.90;;;;;;5079048;28;20028;-63
2023/03/14 06:23:49;;;;;;;14.52;4.80;;;9.30;99.90;;;;;;5067168;28;20131;-65
2023/03/14 06:26:15;;;;;;;15.48;4.40;;;9.20;99.90;;;;;;5086269;28;20045;-65
2023/03/14 06:28:40;;;;;;;13.88;4.43;;;9.20;99.90;;;;;;5079520;28;20036;-64
2023/03/14 06:31:06;;;;;;;10.95;5.47;;;9.20;99.90;;;;;;5076893;28;20036;-64
2023/03/14 06:33:32;;;;;;;12.60;4.60;;;9.20;99.90;;;;;;5084025;28;20565;-63
2023/03/14 06:35:57;;;;;;;13.02;4.50;;;9.20;99.90;;;;;;5060686;28;20044;-64
2023/03/14 06:38:23;;;;;;;16.02;4.78;;;9.20;99.90;;;;;;5077592;28;20040;-65
2023/03/14 06:40:48;;;;;;;14.30;4.68;;;9.20;99.90;;;;;;5075345;28;20032;-63
2023/03/14 06:43:14;;;;;;;14.80;3.65;;;9.20;99.90;;;;;;5063442;28;20044;-63
2023/03/14 06:45:39;;;;;;;13.35;3.80;;;9.30;99.90;;;;;;5055063;28;20732;-63
2023/03/14 06:48:05;;;;;;;12.88;4.75;;;9.30;99.90;;;;;;5071468;28;20060;-64
2023/03/14 06:50:31;;;;;;;15.18;3.95;;;9.30;99.90;;;;;;5069943;28;20036;-63
2023/03/14 06:52:56;;;;;;;8.68;3.88;;;9.30;99.90;;;;;;5074683;28;20033;-63
2023/03/14 06:55:22;;;;;;;10.73;4.18;;;9.30;99.90;;;;;;5069827;28;20098;-63
2023/03/14 06:57:47;;;;;;;12.63;4.35;;;9.20;99.90;;;;;;5055068;28;20196;-64
2023/03/14 07:00:13;;;;;;;12.52;4.35;;;9.30;99.90;;;;;;5080621;28;20123;-63
2023/03/14 07:02:40;;;;;;;13.73;4.85;;;9.30;99.90;;;;;;5068197;28;20032;-63
2023/03/14 07:05:06;;;;;;;5.57;3.05;;;9.30;99.90;;;;;;5065461;28;20478;-65
2023/03/14 07:07:32;;;;;;;7.75;2.60;;;9.30;99.90;;;;;;5082682;28;20047;-64
2023/03/14 07:09:58;;;;;;;4.10;1.92;;;9.30;99.90;;;;;;5080852;28;20400;-63
2023/03/14 07:12:23;;;;;;;5.15;2.10;;;9.30;99.90;;;;;;5072419;28;20182;-63
2023/03/14 07:14:49;;;;;;;5.38;1.75;;;9.20;99.90;;;;;;5080660;28;20032;-63
2023/03/14 07:17:14;;;;;;;4.90;1.70;;;9.10;99.90;;;;;;5066435;28;20149;-63
2023/03/14 07:19:40;;;;;;;5.20;1.60;;;9.10;99.90;;;;;;5080739;28;20032;-63
2023/03/14 07:22:06;;;;;;;5.47;1.65;;;9.00;99.90;;;;;;5086420;28;20478;-63
2023/03/14 07:24:31;;;;;;;5.40;2.22;;;9.00;99.90;;;;;;5076794;28;20107;-63
2023/03/14 07:26:57;;;;;;;6.47;2.20;;;9.00;99.90;;;;;;5055866;28;20580;-63
2023/03/14 07:29:23;;;;;;;10.48;2.33;;;8.90;99.90;;;;;;5070652;28;20095;-64
2023/03/14 07:31:48;;;;;;;7.80;2.35;;;8.90;99.90;;;;;;5052367;28;20144;-63
2023/03/14 07:34:14;;;;;;;6.05;2.13;;;8.90;99.90;;;;;;5057763;28;20098;-63
2023/03/14 07:36:40;;;;;;;5.43;1.52;;;8.80;99.90;;;;;;5078678;28;20221;-63
2023/03/14 07:39:05;;;;;;;9.57;1.30;;;8.80;99.90;;;;;;5072560;28;20048;-63
2023/03/14 07:41:31;;;;;;;3.72;0.88;;;8.80;99.90;;;;;;5073706;28;20150;-66
2023/03/14 07:43:57;;;;;;;2.88;1.10;;;8.70;99.90;;;;;;5080272;28;20569;-64
2023/03/14 07:46:22;;;;;;;4.78;1.00;;;8.70;99.90;;;;;;5072987;28;20119;-64
2023/03/14 07:48:51;;;;;;;3.67;1.00;;;8.60;99.90;;;;;;5084742;28;20115;-64
2023/03/14 07:51:16;;;;;;;4.95;1.00;;;8.60;99.90;;;;;;5061833;28;20458;-63
2023/03/14 07:53:43;;;;;;;4.63;0.73;;;8.50;99.90;;;;;;5071828;28;20028;-63
2023/03/14 07:56:09;;;;;;;7.53;0.90;;;8.50;99.90;;;;;;5071084;28;20037;-63
2023/03/14 07:58:35;;;;;;;3.30;0.80;;;8.40;99.90;;;;;;5058670;28;20135;-64
2023/03/14 08:01:00;;;;;;;3.55;0.70;;;8.30;99.90;;;;;;5075669;28;20040;-64
2023/03/14 08:03:26;;;;;;;5.38;1.00;;;8.20;99.90;;;;;;5055756;28;20490;-64
2023/03/14 08:05:51;;;;;;;3.05;0.60;;;8.20;99.90;;;;;;5071395;28;20406;-64
2023/03/14 08:08:17;;;;;;;6.28;1.73;;;8.10;99.90;;;;;;5078831;28;20048;-63
2023/03/14 08:10:43;;;;;;;3.72;1.10;;;8.10;99.90;;;;;;5076447;28;20079;-63
2023/03/14 08:13:10;;;;;;;6.90;1.70;;;8.10;99.90;;;;;;5074500;28;20440;-63
2023/03/14 08:15:36;;;;;;;5.85;1.38;;;8.00;99.90;;;;;;5083984;28;20048;-64
2023/03/14 08:18:02;;;;;;;4.32;2.08;;;7.40;99.90;;;;;;5061818;28;20093;-64
2023/03/14 08:20:29;;;;;;;4.88;2.00;;;8.10;99.90;;;;;;5064054;28;20452;-63
2023/03/14 08:23:01;;;;;;;10.32;2.67;;;7.90;99.90;;;;;;5072439;28;20036;-64
2023/03/14 08:25:27;;;;;;;8.95;4.40;;;7.80;99.90;;;;;;5077395;28;20036;-63
2023/03/14 08:27:53;;;;;;;6.13;2.50;;;7.80;99.90;;;;;;5064084;28;20052;-64
2023/03/14 08:30:20;;;;;;;6.07;2.25;;;7.80;99.90;;;;;;5075348;28;20048;-64
2023/03/14 08:32:46;;;;;;;5.80;2.15;;;7.70;99.90;;;;;;5087830;28;20055;-63
2023/03/14 08:35:12;;;;;;;5.35;1.80;;;7.70;99.90;;;;;;5072972;28;20052;-63
2023/03/14 08:37:37;;;;;;;4.78;1.40;;;7.70;99.90;;;;;;5068095;28;20071;-63
2023/03/14 08:40:09;;;;;;;3.08;0.75;;;7.60;99.90;;;;;;5052529;28;20395;-63
2023/03/14 08:42:35;;;;;;;4.32;1.52;;;7.60;99.90;;;;;;5080216;28;20051;-63
2023/03/14 08:45:01;;;;;;;2.65;0.93;;;7.60;99.90;;;;;;5086288;28;20032;-63
2023/03/14 08:47:27;;;;;;;3.30;0.93;;;7.60;99.90;;;;;;5071940;28;20039;-63
2023/03/14 08:49:53;;;;;;;2.67;0.93;;;7.60;99.90;;;;;;5060225;28;20036;-63
2023/03/14 08:52:18;;;;;;;5.13;0.90;;;7.60;99.90;;;;;;5073096;28;20048;-63
2023/03/14 08:54:44;;;;;;;3.63;1.02;;;7.60;99.90;;;;;;5076366;28;20025;-63
2023/03/14 08:57:10;;;;;;;3.38;1.17;;;7.60;99.90;;;;;;5054478;28;20055;-63
2023/03/14 08:59:35;;;;;;;4.40;1.50;;;7.60;99.90;;;;;;5075039;28;20027;-63
2023/03/14 09:02:03;;;;;;;4.40;1.58;;;7.60;99.90;;;;;;5055543;28;20067;-63
2023/03/14 09:04:29;;;;;;;6.95;1.55;;;7.60;99.90;;;;;;5079063;28;20032;-63
2023/03/14 09:06:57;;;;;;;6.10;1.52;;;7.60;99.90;;;;;;5058727;28;20043;-63
2023/03/14 09:09:23;;;;;;;5.85;1.27;;;7.60;99.90;;;;;;5058165;28;20075;-63
2023/03/14 09:11:49;;;;;;;2.95;1.08;;;7.60;99.90;;;;;;5065878;28;20691;-63
2023/03/14 09:14:14;;;;;;;7.97;1.40;;;7.60;99.90;;;;;;5072856;28;20032;-63
2023/03/14 09:16:40;;;;;;;5.88;1.13;;;7.70;99.90;;;;;;5061754;28;20046;-63
2023/03/14 09:19:06;;;;;;;4.32;0.80;;;7.70;99.90;;;;;;5063633;28;20060;-63
2023/03/14 09:21:31;;;;;;;5.35;1.38;;;7.70;99.90;;;;;;5065619;28;20040;-63
2023/03/14 09:23:57;;;;;;;3.20;1.00;;;7.70;99.90;;;;;;5081710;28;20308;-63
2023/03/14 09:26:22;;;;;;;6.82;1.17;;;7.80;99.90;;;;;;5075982;28;20067;-63
2023/03/14 09:28:48;;;;;;;2.88;0.98;;;7.80;99.90;;;;;;5063560;28;20047;-63
2023/03/14 09:31:14;;;;;;;7.43;1.40;;;7.90;99.90;;;;;;5065307;28;20054;-63
2023/03/14 09:33:40;;;;;;;9.27;1.35;;;7.90;99.90;;;;;;5077147;28;20394;-63
2023/03/14 09:36:07;;;;;;;6.68;1.30;;;8.00;99.90;;;;;;5087031;28;20413;-63
2023/03/14 09:38:33;;;;;;;7.28;1.60;;;8.00;99.90;;;;;;5076320;28;20370;-63
2023/03/14 09:41:02;;;;;;;10.57;1.60;;;8.20;99.90;;;;;;5069774;28;20037;-63
2023/03/14 09:43:34;;;;;;;7.10;1.58;;;8.20;99.90;;;;;;5111303;22;20059;-78
2023/03/14 09:46:02;;;;;;;10.25;1.60;;;8.30;99.90;;;;;;5041710;28;20496;-78
2023/03/14 09:48:31;;;;;;;8.98;1.67;;;8.30;99.90;;;;;;5053492;28;20032;-78
2023/03/14 09:51:02;;;;;;;8.27;1.67;;;8.40;99.90;;;;;;5054281;28;20032;-78
2023/03/14 09:53:39;;;;;;;12.65;1.88;;;8.30;99.90;;;;;;5031029;28;20490;-78
2023/03/14 09:56:13;;;;;;;15.75;2.17;;;8.30;99.90;;;;;;5043713;28;20307;-78
2023/03/14 09:58:42;;;;;;;13.98;2.03;;;8.30;99.90;;;;;;5059772;28;20050;-78
2023/03/14 10:01:14;;;;;;;12.18;2.40;;;8.30;99.90;;;;;;5057394;28;20041;-78
2023/03/14 10:03:42;;;;;;;12.18;2.50;;;8.20;99.90;;;;;;5059444;28;20036;-77
2023/03/14 10:06:16;;;;;;;16.98;2.53;;;8.20;99.90;;;;;;5040026;28;20037;-78
2023/03/14 10:08:42;;;;;;;14.18;2.65;;;8.20;99.90;;;;;;5043591;28;20072;-74
2023/03/14 10:11:15;;;;;;;14.80;2.30;;;8.10;99.90;;;;;;5029193;28;20032;-77
2023/03/14 10:14:04;;;;;;;13.15;2.25;;;8.10;99.90;;;;;;5053982;28;20041;-77
2023/03/14 10:16:32;;;;;;;8.85;1.90;;;8.10;99.90;;;;;;5053440;28;20489;-77
2023/03/14 10:19:16;;;;;;;11.02;1.98;;;7.70;99.90;;;;;;5059886;28;20036;-76
2023/03/14 10:21:49;;;;;;;16.40;2.60;;;8.20;99.90;;;;;;5047854;28;20453;-78
2023/03/14 10:24:21;;;;;;;12.93;2.65;;;8.20;99.90;;;;;;5027201;28;20045;-78
2023/03/14 10:26:53;;;;;;;12.60;2.53;;;8.20;99.90;;;;;;5057455;28;20032;-78
2023/03/14 10:29:18;;;;;;;19.08;3.47;;;8.10;99.90;;;;;;5039875;28;20512;-78
2023/03/14 10:31:52;;;;;;;14.18;2.65;;;8.00;99.90;;;;;;5037339;28;20037;-78
2023/03/14 10:34:23;;;;;;;20.90;3.20;;;8.00;99.90;;;;;;5055939;28;20047;-76
2023/03/14 10:36:53;;;;;;;16.02;2.72;;;8.00;99.90;;;;;;5040976;28;20508;-78
2023/03/14 10:39:27;;;;;;;17.73;3.38;;;8.10;99.90;;;;;;5049021;28;20037;-78
2023/03/14 10:42:03;;;;;;;13.73;2.92;;;8.10;99.90;;;;;;5051950;28;20392;-78
2023/03/14 10:44:29;;;;;;;15.55;2.97;;;8.10;99.90;;;;;;5046354;28;20048;-78
2023/03/14 10:47:04;;;;;;;21.90;3.72;;;8.20;99.90;;;;;;5054807;28;20040;-78
2023/03/14 10:49:35;;;;;;;18.45;2.80;;;8.20;99.90;;;;;;5042497;28;20043;-78
2023/03/14 10:52:22;;;;;;;16.67;3.53;;;8.10;99.90;;;;;;5067785;28;20037;-78
2023/03/14 10:54:56;;;;;;;17.85;3.38;;;8.20;99.90;;;;;;5050957;28;20044;-77
2023/03/14 10:57:22;;;;;;;21.00;3.72;;;8.20;99.90;;;;;;5041315;28;20040;-78
2023/03/14 10:59:47;;;;;;;16.60;3.28;;;8.30;99.90;;;;;;5055461;28;20035;-77
2023/03/14 11:02:45;;;;;;;17.15;3.25;;;8.30;99.90;;;;;;5025394;28;20036;-77
2023/03/14 11:05:38;;;;;;;15.88;2.90;;;8.40;99.90;;;;;;5055019;28;20036;-77
2023/03/14 11:08:24;;;;;;;19.05;2.97;;;8.50;99.90;;;;;;5048520;28;20076;-77
2023/03/14 11:11:01;;;;;;;17.15;2.42;;;8.50;99.90;;;;;;5053628;28;20036;-77
2023/03/14 11:13:43;;;;;;;16.88;2.35;;;8.50;99.90;;;;;;5068678;28;20033;-76
2023/03/14 11:16:24;;;;;;;19.97;2.67;;;8.40;99.90;;;;;;5053765;28;20043;-77
2023/03/14 11:19:09;;;;;;;15.18;2.42;;;8.30;99.90;;;;;;5066892;28;20503;-77
2023/03/14 11:21:43;;;;;;;15.85;2.58;;;8.30;99.90;;;;;;5045749;28;20041;-77
2023/03/14 11:24:15;;;;;;;17.15;2.22;;;8.30;99.90;;;;;;5054275;28;20158;-77
2023/03/14 11:27:06;;;;;;;14.30;2.72;;;8.30;99.90;;;;;;5057249;28;20045;-76
2023/03/14 11:29:35;;;;;;;13.25;2.58;;;8.50;99.90;;;;;;5043024;28;20072;-77
2023/03/14 11:32:03;;;;;;;10.88;2.55;;;8.50;99.90;;;;;;5048733;28;20108;-77
2023/03/14 11:34:42;;;;;;;17.13;2.28;;;8.60;99.90;;;;;;5066680;28;20040;-77
2023/03/14 11:37:21;;;;;;;11.30;2.45;;;8.60;99.90;;;;;;5054654;28;20077;-77
2023/03/14 11:39:55;;;;;;;12.35;2.40;;;8.70;99.90;;;;;;5057195;28;20040;-77
2023/03/14 11:42:22;;;;;;;11.20;2.00;;;8.80;99.90;;;;;;5053900;28;20032;-78
2023/03/14 11:44:49;;;;;;;14.95;2.65;;;9.00;99.90;;;;;;5055813;28;20032;-77
2023/03/14 11:47:38;;;;;;;11.48;2.33;;;9.00;99.90;;;;;;5048435;28;20049;-75
2023/03/14 11:50:15;;;;;;;9.60;1.98;;;9.00;99.90;;;;;;5037003;28;20488;-75
2023/03/14 11:52:52;;;;;;;8.75;2.20;;;9.10;99.90;;;;;;5046349;28;20503;-75
2023/03/14 11:55:31;;;;;;;9.75;1.73;;;9.10;99.90;;;;;;5048193;28;20044;-77
2023/03/14 11:58:03;;;;;;;11.60;2.00;;;9.10;99.90;;;;;;5043272;28;20037;-75
2023/03/14 12:00:29;;;;;;;14.95;2.35;;;9.00;99.90;;;;;;5053149;28;20040;-76
2023/03/14 12:03:13;;;;;;;10.32;2.17;;;9.00;99.90;;;;;;5053227;28;20083;-75
2023/03/14 12:05:59;;;;;;;9.25;2.50;;;9.00;99.90;;;;;;5068358;28;20469;-75
2023/03/14 12:08:32;;;;;;;13.57;2.22;;;9.10;99.90;;;;;;5048216;28;20080;-76
2023/03/14 12:11:09;;;;;;;12.10;2.08;;;9.20;99.90;;;;;;5054338;28;20033;-76
2023/03/14 12:13:38;;;;;;;11.02;2.60;;;9.40;99.90;;;;;;5053437;28;20044;-76
2023/03/14 12:16:38;;;;;;;9.02;2.08;;;9.60;99.90;;;;;;5045359;28;20047;-76
2023/03/14 12:19:19;;;;;;;10.25;1.92;;;9.70;99.90;;;;;;4976672;28;20366;-77
2023/03/14 12:22:08;;;;;;;8.02;1.40;;;10.00;99.90;;;;;;5047396;28;20089;-77
2023/03/14 12:24:37;;;;;;;7.55;1.58;;;10.20;99.90;;;;;;5048881;28;20068;-77
2023/03/14 12:27:05;;;;;;;8.70;1.50;;;10.30;99.90;;;;;;5049239;28;20036;-77
2023/03/14 12:29:31;;;;;;;6.35;1.17;;;10.30;99.90;;;;;;5048474;28;20420;-77
2023/03/14 12:32:08;;;;;;;6.07;1.50;;;10.30;99.90;;;;;;5049843;28;20063;-76
2023/03/14 12:34:42;;;;;;;7.30;1.67;;;10.30;99.90;;;;;;5048348;28;20036;-77
2023/03/14 12:37:22;;;;;;;3.83;1.13;;;10.10;99.90;;;;;;5049681;28;20044;-77
2023/03/14 12:40:06;;;;;;;8.68;1.27;;;10.00;99.90;;;;;;5054225;28;20045;-78
2023/03/14 12:42:37;;;;;;;5.78;1.35;;;10.00;99.90;;;;;;5061183;28;20090;-78
2023/03/14 12:45:22;;;;;;;6.75;1.58;;;9.90;99.80;;;;;;5027792;28;20028;-78
2023/03/14 12:48:09;;;;;;;7.57;1.42;;;9.90;99.90;;;;;;5049774;28;20037;-78
2023/03/14 12:50:53;;;;;;;8.18;1.50;;;10.00;99.90;;;;;;5059509;28;20032;-78
2023/03/14 12:53:49;;;;;;;6.75;1.58;;;10.10;99.90;;;;;;5038163;28;20443;-79
2023/03/14 12:56:26;;;;;;;8.60;1.70;;;10.20;99.90;;;;;;5047704;28;20130;-78